createdAt,value
2023-10-09T00:01:14.349Z,100.00
2023-10-09T00:03:44.926Z,100.00
2023-10-09T00:06:14.877Z,100.00
2023-10-09T00:08:46.072Z,100.00
2023-10-09T00:11:18.278Z,100.00
2023-10-09T00:13:52.995Z,100.00
2023-10-09T00:16:34.003Z,100.00
2023-10-09T00:19:14.943Z,100.00
2023-10-09T00:21:43.437Z,100.00
2023-10-09T00:24:15.771Z,100.00
2023-10-09T00:26:46.969Z,100.00
2023-10-09T00:29:22.787Z,100.00
2023-10-09T00:32:07.003Z,100.00
2023-10-09T00:34:40.886Z,100.00
2023-10-09T00:37:12.049Z,100.00
2023-10-09T00:39:44.884Z,100.00
2023-10-09T00:42:23.917Z,100.00
2023-10-09T00:44:53.436Z,100.00
2023-10-09T00:47:28.016Z,100.00
2023-10-09T00:50:01.837Z,100.00
2023-10-09T00:52:38.230Z,100.00
2023-10-09T00:55:14.873Z,100.00
2023-10-09T00:57:51.361Z,100.00
2023-10-09T01:00:34.976Z,100.00
2023-10-09T01:03:20.343Z,100.00
2023-10-09T01:05:58.161Z,100.00
2023-10-09T01:08:30.922Z,100.00
2023-10-09T01:11:09.962Z,100.00
2023-10-09T01:13:53.571Z,100.00
2023-10-09T01:16:24.999Z,100.00
2023-10-09T01:18:58.063Z,100.00
2023-10-09T01:21:27.803Z,100.00
2023-10-09T01:24:14.580Z,100.00
2023-10-09T01:26:47.550Z,100.00
2023-10-09T01:29:17.352Z,100.00
2023-10-09T01:31:52.265Z,100.00
2023-10-09T01:34:25.388Z,100.00
2023-10-09T01:36:56.490Z,100.00
2023-10-09T01:39:27.754Z,100.00
2023-10-09T01:42:06.714Z,100.00
2023-10-09T01:44:36.872Z,100.00
2023-10-09T01:47:08.948Z,100.00
2023-10-09T01:49:38.575Z,100.00
2023-10-09T01:52:10.120Z,100.00
2023-10-09T01:54:42.809Z,100.00
2023-10-09T01:57:14.419Z,100.00
2023-10-09T01:59:46.298Z,100.00
2023-10-09T02:02:44.561Z,100.00
2023-10-09T02:05:25.881Z,100.00
2023-10-09T02:07:54.345Z,100.00
2023-10-09T02:10:33.008Z,100.00
2023-10-09T02:13:08.114Z,100.00
2023-10-09T02:15:47.609Z,100.00
2023-10-09T02:18:26.884Z,100.00
2023-10-09T02:21:13.634Z,100.00
2023-10-09T02:23:48.016Z,100.00
2023-10-09T02:27:08.046Z,100.00
2023-10-09T02:29:39.816Z,100.00
2023-10-09T02:32:17.400Z,100.00
2023-10-09T02:34:47.670Z,100.00
2023-10-09T02:37:15.907Z,100.00
2023-10-09T02:39:48.584Z,100.00
2023-10-09T02:42:27.935Z,100.00
2023-10-09T02:44:56.693Z,100.00
2023-10-09T02:47:49.887Z,100.00
2023-10-09T02:50:29.321Z,100.00
2023-10-09T02:53:09.669Z,100.00
2023-10-09T02:55:39.999Z,100.00
2023-10-09T02:58:21.383Z,100.00
2023-10-09T03:00:50.329Z,100.00
2023-10-09T03:03:20.192Z,100.00
2023-10-09T03:05:51.075Z,100.00
2023-10-09T03:08:20.501Z,100.00
2023-10-09T03:10:49.103Z,100.00
2023-10-09T03:13:20.450Z,100.00
2023-10-09T03:15:53.031Z,100.00
2023-10-09T03:18:21.728Z,100.00
2023-10-09T03:20:49.772Z,100.00
2023-10-09T03:23:17.961Z,100.00
2023-10-09T03:25:46.768Z,100.00
2023-10-09T03:28:16.394Z,100.00
2023-10-09T03:30:48.375Z,100.00
2023-10-09T03:33:17.226Z,100.00
2023-10-09T03:35:45.551Z,100.00
2023-10-09T03:38:18.984Z,100.00
2023-10-09T03:40:49.350Z,100.00
2023-10-09T03:43:17.823Z,100.00
2023-10-09T03:45:53.668Z,100.00
2023-10-09T03:48:24.082Z,100.00
2023-10-09T03:51:00.505Z,100.00
2023-10-09T03:53:31.337Z,100.00
2023-10-09T03:56:00.321Z,100.00
2023-10-09T03:58:34.166Z,100.00
2023-10-09T04:01:10.377Z,100.00
2023-10-09T04:03:40.109Z,100.00
2023-10-09T04:06:11.024Z,100.00
2023-10-09T04:08:42.862Z,100.00
2023-10-09T04:11:17.206Z,100.00
2023-10-09T04:13:47.291Z,100.00
2023-10-09T04:16:35.355Z,100.00
2023-10-09T04:19:12.487Z,100.00
2023-10-09T04:21:39.849Z,100.00
2023-10-09T04:24:24.064Z,100.00
2023-10-09T04:26:57.365Z,100.00
2023-10-09T04:29:28.702Z,100.00
2023-10-09T04:32:01.779Z,100.00
2023-10-09T04:34:37.133Z,100.00
2023-10-09T04:37:25.378Z,100.00
2023-10-09T04:40:15.075Z,100.00
2023-10-09T04:42:59.064Z,100.00
2023-10-09T04:45:47.339Z,100.00
2023-10-09T04:48:33.880Z,100.00
2023-10-09T04:51:20.198Z,100.00
2023-10-09T04:53:56.143Z,100.00
2023-10-09T04:56:25.634Z,100.00
2023-10-09T04:59:04.658Z,100.00
2023-10-09T05:01:45.307Z,100.00
2023-10-09T05:07:22.381Z,100.00
2023-10-09T05:09:59.042Z,100.00
2023-10-09T05:12:28.808Z,100.00
2023-10-09T05:15:09.844Z,100.00
2023-10-09T05:17:39.609Z,100.00
2023-10-09T05:20:26.495Z,100.00
2023-10-09T05:22:59.407Z,100.00
2023-10-09T05:25:45.849Z,100.00
2023-10-09T05:28:31.878Z,100.00
2023-10-09T05:31:09.715Z,100.00
2023-10-09T05:33:39.730Z,100.00
2023-10-09T05:36:33.104Z,100.00
2023-10-09T05:39:17.012Z,100.00
2023-10-09T05:42:03.448Z,100.00
2023-10-09T05:44:51.311Z,100.00
2023-10-09T05:47:36.425Z,100.00
2023-10-09T05:53:18.374Z,100.00
2023-10-09T05:56:10.187Z,100.00
2023-10-09T05:59:10.229Z,100.00
2023-10-09T06:06:05.995Z,100.00
2023-10-09T06:08:56.780Z,100.00
2023-10-09T06:11:42.625Z,100.00
2023-10-09T06:14:14.485Z,100.00
2023-10-09T06:16:50.162Z,100.00
2023-10-09T06:19:28.296Z,100.00
2023-10-09T06:22:20.190Z,100.00
2023-10-09T06:24:58.735Z,100.00
2023-10-09T06:27:48.453Z,100.00
2023-10-09T06:30:25.537Z,100.00
2023-10-09T06:32:59.558Z,100.00
2023-10-09T06:35:32.663Z,100.00
2023-10-09T06:38:19.713Z,100.00
2023-10-09T06:41:08.922Z,100.00
2023-10-09T06:43:54.235Z,100.00
2023-10-09T06:46:45.195Z,100.00
2023-10-09T06:49:34.356Z,100.00
2023-10-09T06:52:16.508Z,100.00
2023-10-09T06:54:51.339Z,100.00
2023-10-09T06:57:45.024Z,100.00
2023-10-09T07:00:29.438Z,100.00
2023-10-09T07:03:01.655Z,100.00
2023-10-09T07:05:39.352Z,100.00
2023-10-09T07:08:27.696Z,100.00
2023-10-09T07:11:14.854Z,100.00
2023-10-09T07:13:43.873Z,100.00
2023-10-09T07:16:29.964Z,100.00
2023-10-09T07:19:10.863Z,100.00
2023-10-09T07:21:40.415Z,100.00
2023-10-09T07:24:18.709Z,100.00
2023-10-09T07:26:54.059Z,100.00
2023-10-09T07:29:24.022Z,100.00
2023-10-09T07:35:35.506Z,100.00
2023-10-09T07:38:04.487Z,100.00
2023-10-09T07:40:53.006Z,100.00
2023-10-09T07:43:27.235Z,100.00
2023-10-09T07:46:13.046Z,100.00
2023-10-09T07:48:49.971Z,100.00
2023-10-09T07:51:21.145Z,100.00
2023-10-09T07:53:51.259Z,100.00
2023-10-09T07:56:22.106Z,100.00
2023-10-09T07:59:14.817Z,100.00
2023-10-09T08:01:53.488Z,100.00
2023-10-09T08:04:39.036Z,100.00
2023-10-09T08:08:08.782Z,100.00
2023-10-09T08:11:00.380Z,100.00
2023-10-09T08:13:51.410Z,100.00
2023-10-09T08:16:53.078Z,100.00
2023-10-09T08:19:33.722Z,100.00
2023-10-09T08:22:17.160Z,100.00
2023-10-09T08:24:53.796Z,100.00
2023-10-09T08:27:48.296Z,100.00
2023-10-09T08:30:29.639Z,100.00
2023-10-09T08:35:49.373Z,100.00
2023-10-09T08:38:24.654Z,100.00
2023-10-09T08:40:59.953Z,100.00
2023-10-09T08:43:32.070Z,100.00
2023-10-09T08:46:03.554Z,100.00
2023-10-09T08:48:32.846Z,100.00
2023-10-09T08:51:07.673Z,100.00
2023-10-09T08:53:44.029Z,100.00
2023-10-09T08:56:12.710Z,100.00
2023-10-09T08:58:41.759Z,100.00
2023-10-09T09:01:10.011Z,100.00
2023-10-09T09:03:44.760Z,100.00
2023-10-09T09:06:15.790Z,100.00
2023-10-09T09:08:46.244Z,100.00
2023-10-09T09:11:18.513Z,100.00
2023-10-09T09:13:50.933Z,100.00
2023-10-09T09:16:21.557Z,100.00
2023-10-09T09:19:06.216Z,100.00
2023-10-09T09:21:41.874Z,100.00
2023-10-09T09:24:28.102Z,100.00
2023-10-09T09:27:01.121Z,100.00
2023-10-09T09:29:41.517Z,100.00
2023-10-09T09:32:18.738Z,100.00
2023-10-09T09:34:49.617Z,100.00
2023-10-09T09:37:22.541Z,100.00
2023-10-09T09:39:56.020Z,100.00
2023-10-09T09:42:28.197Z,100.00
2023-10-09T09:44:58.572Z,100.00
2023-10-09T09:47:28.471Z,100.00
2023-10-09T09:50:01.948Z,100.00
2023-10-09T09:52:40.085Z,100.00
2023-10-09T09:55:17.868Z,100.00
2023-10-09T09:57:52.847Z,100.00
2023-10-09T10:00:31.943Z,100.00
2023-10-09T10:03:07.788Z,100.00
2023-10-09T10:05:36.666Z,100.00
2023-10-09T10:08:13.367Z,100.00
2023-10-09T10:10:55.208Z,100.00
2023-10-09T10:14:00.152Z,100.00
2023-10-09T10:16:44.747Z,100.00
2023-10-09T10:19:26.721Z,100.00
2023-10-09T10:21:55.095Z,100.00
2023-10-09T10:24:55.044Z,100.00
2023-10-09T10:27:34.356Z,100.00
2023-10-09T10:30:34.599Z,100.00
2023-10-09T10:33:17.324Z,100.00
2023-10-09T10:35:53.994Z,100.00
2023-10-09T10:38:38.008Z,100.00
2023-10-09T10:41:15.186Z,100.00
2023-10-09T10:44:00.561Z,100.00
2023-10-09T10:46:39.952Z,100.00
2023-10-09T10:49:21.788Z,100.00
2023-10-09T10:51:52.170Z,100.00
2023-10-09T10:54:42.050Z,100.00
2023-10-09T10:57:52.487Z,100.00
2023-10-09T11:00:39.612Z,100.00
2023-10-09T11:03:20.418Z,100.00
2023-10-09T11:05:53.086Z,100.00
2023-10-09T11:08:32.346Z,100.00
2023-10-09T11:11:17.301Z,100.00
2023-10-09T11:13:55.467Z,100.00
2023-10-09T11:16:43.186Z,100.00
2023-10-09T11:19:30.223Z,100.00
2023-10-09T11:22:16.109Z,100.00
2023-10-09T11:24:45.240Z,100.00
2023-10-09T11:27:20.147Z,100.00
2023-10-09T11:29:56.094Z,100.00
2023-10-09T11:32:24.873Z,94.71
2023-10-09T11:35:10.952Z,100.00
2023-10-09T11:37:43.864Z,98.15
2023-10-09T11:40:33.987Z,93.79
2023-10-09T11:43:02.016Z,97.07
2023-10-09T11:45:31.011Z,98.47
2023-10-09T11:48:25.782Z,91.72
2023-10-09T11:50:55.458Z,100.00
2023-10-09T11:53:36.026Z,100.00
2023-10-09T11:56:03.499Z,92.92
2023-10-09T11:58:31.686Z,88.90
2023-10-09T12:01:10.313Z,78.46
2023-10-09T12:03:40.178Z,81.46
2023-10-09T12:06:13.295Z,82.17
2023-10-09T12:08:42.054Z,76.61
2023-10-09T12:11:12.238Z,72.15
2023-10-09T12:13:40.690Z,70.58
2023-10-09T12:16:12.871Z,70.27
2023-10-09T12:18:42.354Z,78.42
2023-10-09T12:21:17.066Z,71.30
2023-10-09T12:23:48.495Z,69.86
2023-10-09T12:26:17.008Z,68.69
2023-10-09T12:28:47.560Z,78.28
2023-10-09T12:31:16.660Z,72.40
2023-10-09T12:34:11.025Z,80.10
2023-10-09T12:36:39.052Z,75.93
2023-10-09T12:39:07.272Z,71.53
2023-10-09T12:41:36.541Z,64.93
2023-10-09T12:44:05.991Z,63.88
2023-10-09T12:46:39.130Z,59.73
2023-10-09T12:49:07.811Z,67.05
2023-10-09T12:51:37.442Z,70.09
2023-10-09T12:54:06.139Z,57.97
2023-10-09T12:56:39.684Z,70.96
2023-10-09T12:59:08.985Z,71.32
2023-10-09T13:01:44.722Z,77.89
2023-10-09T13:04:15.010Z,56.45
2023-10-09T13:06:45.921Z,66.65
2023-10-09T13:09:14.928Z,61.79
2023-10-09T13:11:43.750Z,63.65
2023-10-09T13:14:18.433Z,60.56
2023-10-09T13:16:47.386Z,63.99
2023-10-09T13:19:15.564Z,68.65
2023-10-09T13:21:45.760Z,60.80
2023-10-09T13:24:16.797Z,61.08
2023-10-09T13:26:47.931Z,58.36
2023-10-09T13:29:23.501Z,63.24
2023-10-09T13:31:54.083Z,59.72
2023-10-09T13:34:22.252Z,56.54
2023-10-09T13:36:54.597Z,64.72
2023-10-09T13:39:25.623Z,63.73
2023-10-09T13:41:59.189Z,67.63
2023-10-09T13:44:29.106Z,72.84
2023-10-09T13:46:57.938Z,64.80
2023-10-09T13:49:31.588Z,65.79
2023-10-09T13:52:04.277Z,62.53
2023-10-09T13:54:42.009Z,61.69
2023-10-09T13:57:12.186Z,65.08
2023-10-09T13:59:44.676Z,59.79
2023-10-09T14:02:19.175Z,62.28
2023-10-09T14:04:49.582Z,61.29
2023-10-09T14:07:21.476Z,61.61
2023-10-09T14:09:57.431Z,62.88
2023-10-09T14:12:33.162Z,66.95
2023-10-09T14:15:04.728Z,66.90
2023-10-09T14:17:32.917Z,62.77
2023-10-09T14:20:23.155Z,67.84
2023-10-09T14:22:54.086Z,72.97
2023-10-09T14:25:23.157Z,71.71
2023-10-09T14:27:54.199Z,77.17
2023-10-09T14:30:32.073Z,72.18
2023-10-09T14:33:03.303Z,73.47
2023-10-09T14:35:34.845Z,70.89
2023-10-09T14:38:12.588Z,75.83
2023-10-09T14:40:44.920Z,66.80
2023-10-09T14:43:20.202Z,70.69
2023-10-09T14:45:51.112Z,74.23
2023-10-09T14:48:19.670Z,74.01
2023-10-09T14:50:54.212Z,78.83
2023-10-09T14:53:35.565Z,76.59
2023-10-09T14:56:04.934Z,78.71
2023-10-09T14:58:36.139Z,73.42
2023-10-09T15:01:16.632Z,76.70
2023-10-09T15:03:45.533Z,75.53
2023-10-09T15:06:18.264Z,82.77
2023-10-09T15:08:50.690Z,87.10
2023-10-09T15:11:19.119Z,84.32
2023-10-09T15:13:48.020Z,80.67
2023-10-09T15:16:16.448Z,89.91
2023-10-09T15:18:44.640Z,81.60
2023-10-09T15:21:12.687Z,81.05
2023-10-09T15:23:40.891Z,93.02
2023-10-09T15:26:10.477Z,90.52
2023-10-09T15:28:43.612Z,83.66
2023-10-09T15:31:12.556Z,86.53
2023-10-09T15:33:41.064Z,99.76
2023-10-09T15:36:14.036Z,93.70
2023-10-09T15:38:42.379Z,93.05
2023-10-09T15:41:12.940Z,97.37
2023-10-09T15:43:41.611Z,94.98
2023-10-09T15:46:17.627Z,94.25
2023-10-09T15:48:47.360Z,100.00
2023-10-09T15:51:16.968Z,100.00
2023-10-09T15:53:46.781Z,100.00
2023-10-09T15:56:19.047Z,98.69
2023-10-09T15:58:47.444Z,100.00
2023-10-09T16:01:19.612Z,99.25
2023-10-09T16:03:49.344Z,100.00
2023-10-09T16:06:18.405Z,100.00
2023-10-09T16:08:47.623Z,100.00
2023-10-09T16:11:20.263Z,100.00
2023-10-09T16:13:48.419Z,100.00
2023-10-09T16:16:16.545Z,100.00
2023-10-09T16:18:44.835Z,100.00
2023-10-09T16:21:13.619Z,100.00
2023-10-09T16:23:43.401Z,100.00
2023-10-09T16:26:12.441Z,100.00
2023-10-09T16:28:42.441Z,100.00
2023-10-09T16:31:15.343Z,100.00
2023-10-09T16:33:43.452Z,100.00
2023-10-09T16:36:11.509Z,100.00
2023-10-09T16:38:40.695Z,100.00
2023-10-09T16:41:10.033Z,100.00
2023-10-09T16:43:42.539Z,100.00
2023-10-09T16:46:15.276Z,100.00
2023-10-09T16:48:47.229Z,100.00
2023-10-09T16:51:19.086Z,100.00
2023-10-09T16:53:47.157Z,100.00
2023-10-09T16:56:15.333Z,100.00
2023-10-09T16:58:43.614Z,100.00
2023-10-09T17:01:13.282Z,100.00
2023-10-09T17:03:43.757Z,100.00
2023-10-09T17:06:13.212Z,100.00
2023-10-09T17:08:43.548Z,100.00
2023-10-09T17:11:14.001Z,100.00
2023-10-09T17:13:45.609Z,100.00
2023-10-09T17:16:18.411Z,100.00
2023-10-09T17:18:48.654Z,100.00
2023-10-09T17:21:17.412Z,100.00
2023-10-09T17:23:47.010Z,100.00
2023-10-09T17:26:16.148Z,100.00
2023-10-09T17:28:44.835Z,100.00
2023-10-09T17:31:14.069Z,100.00
2023-10-09T17:33:44.657Z,100.00
2023-10-09T17:36:13.751Z,100.00
2023-10-09T17:38:43.426Z,100.00
2023-10-09T17:41:11.645Z,100.00
2023-10-09T17:43:40.819Z,100.00
2023-10-09T17:46:09.055Z,100.00
2023-10-09T17:48:37.213Z,100.00
2023-10-09T17:51:09.830Z,100.00
2023-10-09T17:53:39.625Z,100.00
2023-10-09T17:56:09.275Z,100.00
2023-10-09T17:59:52.725Z,100.00
2023-10-09T18:02:20.953Z,100.00
2023-10-09T18:04:49.733Z,100.00
2023-10-09T18:07:20.162Z,100.00
2023-10-09T18:09:53.328Z,100.00
2023-10-09T18:12:25.626Z,100.00
2023-10-09T18:15:21.953Z,100.00
2023-10-09T18:17:51.467Z,100.00
2023-10-09T18:20:21.824Z,100.00
2023-10-09T18:22:51.937Z,100.00
2023-10-09T18:25:20.384Z,100.00
2023-10-09T18:27:48.874Z,100.00
2023-10-09T18:30:17.056Z,100.00
2023-10-09T18:32:47.285Z,100.00
2023-10-09T18:35:17.213Z,100.00
2023-10-09T18:37:45.568Z,100.00
2023-10-09T18:40:17.729Z,100.00
2023-10-09T18:42:46.129Z,100.00
2023-10-09T18:45:16.601Z,100.00
2023-10-09T18:47:44.801Z,100.00
2023-10-09T18:50:13.588Z,100.00
2023-10-09T18:52:43.794Z,100.00
2023-10-09T18:55:14.418Z,100.00
2023-10-09T18:57:44.170Z,100.00
2023-10-09T19:00:20.757Z,100.00
2023-10-09T19:02:52.196Z,100.00
2023-10-09T19:05:21.083Z,100.00
2023-10-09T19:07:49.431Z,100.00
2023-10-09T19:10:21.971Z,100.00
2023-10-09T19:12:50.357Z,100.00
2023-10-09T19:15:19.535Z,100.00
2023-10-09T19:17:47.929Z,100.00
2023-10-09T19:20:18.185Z,100.00
2023-10-09T19:22:46.466Z,100.00
2023-10-09T19:25:17.708Z,100.00
2023-10-09T19:27:49.684Z,100.00
2023-10-09T19:30:18.627Z,100.00
2023-10-09T19:32:48.614Z,100.00
2023-10-09T19:35:17.487Z,100.00
2023-10-09T19:37:48.928Z,100.00
2023-10-09T19:40:17.332Z,100.00
2023-10-09T19:42:45.437Z,100.00
2023-10-09T19:45:20.570Z,100.00
2023-10-09T19:47:50.950Z,100.00
2023-10-09T19:50:19.403Z,100.00
2023-10-09T19:52:49.435Z,100.00
2023-10-09T19:55:22.469Z,100.00
2023-10-09T19:57:52.488Z,100.00
2023-10-09T20:00:23.574Z,100.00
2023-10-09T20:02:55.273Z,100.00
2023-10-09T20:05:24.228Z,100.00
2023-10-09T20:07:54.051Z,100.00
2023-10-09T20:10:22.288Z,100.00
2023-10-09T20:12:50.478Z,100.00
2023-10-09T20:15:22.377Z,100.00
2023-10-09T20:17:51.982Z,100.00
2023-10-09T20:20:23.812Z,100.00
2023-10-09T20:22:53.622Z,100.00
2023-10-09T20:25:23.975Z,100.00
2023-10-09T20:27:53.908Z,100.00
2023-10-09T20:30:25.358Z,100.00
2023-10-09T20:32:55.227Z,100.00
2023-10-09T20:35:27.758Z,100.00
2023-10-09T20:37:56.869Z,100.00
2023-10-09T20:40:25.409Z,100.00
2023-10-09T20:42:55.429Z,100.00
2023-10-09T20:45:23.584Z,100.00
2023-10-09T20:47:56.128Z,100.00
2023-10-09T20:50:27.043Z,100.00
2023-10-09T20:52:56.139Z,100.00
2023-10-09T20:55:24.721Z,100.00
2023-10-09T20:57:57.883Z,100.00
2023-10-09T21:00:27.892Z,100.00
2023-10-09T21:02:57.909Z,100.00
2023-10-09T21:05:28.090Z,100.00
2023-10-09T21:07:56.841Z,100.00
2023-10-09T21:10:24.987Z,100.00
2023-10-09T21:12:53.295Z,100.00
2023-10-09T21:15:22.695Z,100.00
2023-10-09T21:17:53.376Z,100.00
2023-10-09T21:20:22.027Z,100.00
2023-10-09T21:22:55.313Z,100.00
2023-10-09T21:25:24.476Z,100.00
2023-10-09T21:27:55.444Z,100.00
2023-10-09T21:30:24.636Z,100.00
2023-10-09T21:32:55.157Z,100.00
2023-10-09T21:35:28.931Z,100.00
2023-10-09T21:38:00.414Z,100.00
2023-10-09T21:40:30.793Z,100.00
2023-10-09T21:43:00.421Z,100.00
2023-10-09T21:45:29.371Z,100.00
2023-10-09T21:48:00.016Z,100.00
2023-10-09T21:50:29.953Z,100.00
2023-10-09T21:53:00.946Z,100.00
2023-10-09T21:55:28.971Z,100.00
2023-10-09T21:57:57.224Z,100.00
2023-10-09T22:00:32.676Z,100.00
2023-10-09T22:03:04.182Z,100.00
2023-10-09T22:05:34.024Z,100.00
2023-10-09T22:08:03.824Z,100.00
2023-10-09T22:10:32.072Z,100.00
2023-10-09T22:13:27.466Z,100.00
2023-10-09T22:15:55.635Z,100.00
2023-10-09T22:18:26.907Z,100.00
2023-10-09T22:20:57.869Z,100.00
2023-10-09T22:23:34.066Z,100.00
2023-10-09T22:26:03.036Z,100.00
2023-10-09T22:28:34.266Z,100.00
2023-10-09T22:31:05.286Z,100.00
2023-10-09T22:33:47.014Z,100.00
2023-10-09T22:36:28.460Z,100.00
2023-10-09T22:39:08.608Z,100.00
2023-10-09T22:41:36.623Z,100.00
2023-10-09T22:44:11.737Z,100.00
2023-10-09T22:46:41.890Z,100.00
2023-10-09T22:49:16.129Z,100.00
2023-10-09T22:51:51.416Z,100.00
2023-10-09T22:54:31.406Z,100.00
2023-10-09T22:56:59.574Z,100.00
2023-10-09T22:59:28.586Z,100.00
2023-10-09T23:01:57.995Z,100.00
2023-10-09T23:04:38.405Z,100.00
2023-10-09T23:07:15.441Z,100.00
2023-10-09T23:09:51.928Z,100.00
2023-10-09T23:12:24.453Z,100.00
2023-10-09T23:14:54.192Z,100.00
2023-10-09T23:17:43.078Z,100.00
2023-10-09T23:20:17.561Z,100.00
2023-10-09T23:22:51.289Z,100.00
2023-10-09T23:25:30.646Z,100.00
2023-10-09T23:28:17.196Z,100.00
2023-10-09T23:30:45.465Z,100.00
2023-10-09T23:33:16.857Z,100.00
2023-10-09T23:36:09.803Z,100.00
2023-10-09T23:38:57.981Z,100.00
2023-10-09T23:41:26.934Z,100.00
2023-10-09T23:43:56.599Z,100.00
2023-10-09T23:46:25.891Z,100.00
2023-10-09T23:48:55.256Z,100.00
2023-10-09T23:51:28.218Z,100.00
2023-10-09T23:54:02.536Z,100.00
2023-10-09T23:56:43.771Z,100.00
2023-10-09T23:59:14.372Z,100.00
